Time;durP1;ratioP1;P1;durP2;ratioP2;P2;SDS_P1;SDS_P2;PMS_P1;PMS_P2;Temp;Humidity;BMP_temperature;BMP_pressure;BME280_temperature;BME280_humidity;BME280_pressure;Samples;Min_cycle;Max_cycle;Signal;HPM_P1;HPM_P2
2021/06/29 20:46:53;;;;;;;;;14.25;12.75;;;;;16.88;72.86;100553.28;5116316;27;45468;-64
2021/06/29 20:49:18;;;;;;;;;9.00;9.00;;;;;16.87;72.16;100560.44;5089887;27;45416;-68
2021/06/29 20:51:44;;;;;;;;;12.25;10.50;;;;;16.83;72.17;100556.28;5073243;27;53559;-69
2021/06/29 20:54:09;;;;;;;;;13.25;13.25;;;;;16.84;72.36;100557.09;5092280;27;45440;-67
2021/06/29 20:56:41;;;;;;;;;8.50;8.50;;;;;16.79;72.03;100554.78;5089869;27;45446;-66
2021/06/29 20:59:16;;;;;;;;;11.75;9.00;;;;;16.76;72.22;100547.00;5090283;27;45468;-67
2021/06/29 21:01:42;;;;;;;;;6.00;5.75;;;;;16.73;72.17;100550.72;5090037;27;45418;-66
2021/06/29 21:04:08;;;;;;;;;10.00;8.75;;;;;16.71;72.07;100547.31;5084856;27;45523;-68
2021/06/29 21:06:33;;;;;;;;;7.50;7.50;;;;;16.69;71.71;100545.72;5100182;27;46259;-68
2021/06/29 21:08:59;;;;;;;;;14.25;11.50;;;;;16.64;72.37;100552.19;5079823;27;45342;-68
2021/06/29 21:11:28;;;;;;;;;10.75;8.00;;;;;16.64;72.12;100548.66;5092066;27;45472;-69
2021/06/29 21:13:55;;;;;;;;;5.00;5.00;;;;;16.61;71.95;100548.88;5090205;27;45368;-66
2021/06/29 21:16:21;;;;;;;;;11.25;9.00;;;;;16.56;72.22;100535.06;5089525;27;45756;-68
2021/06/29 21:18:47;;;;;;;;;10.00;8.00;;;;;16.55;72.05;100538.66;5089201;27;45512;-68
2021/06/29 21:21:12;;;;;;;;;9.75;9.75;;;;;16.56;72.15;100541.22;5089990;27;45453;-63
2021/06/29 21:23:37;;;;;;;;;9.75;8.25;;;;;16.57;72.18;100542.06;5105980;27;45378;-65
2021/06/29 21:26:04;;;;;;;;;9.75;9.75;;;;;16.61;72.36;100538.25;5089675;27;56954;-63
2021/06/29 21:28:30;;;;;;;;;10.00;9.50;;;;;16.64;72.48;100540.69;5089629;27;45455;-65
2021/06/29 21:30:56;;;;;;;;;11.25;10.00;;;;;16.65;72.42;100534.44;5091061;27;45402;-63
2021/06/29 21:33:21;;;;;;;;;11.00;10.50;;;;;16.65;72.52;100540.63;5092009;27;45481;-64
2021/06/29 21:35:47;;;;;;;;;12.00;12.00;;;;;16.66;72.72;100536.13;5090434;27;45902;-65
2021/06/29 21:38:12;;;;;;;;;11.50;10.75;;;;;16.67;72.87;100539.66;5092091;27;46705;-65
2021/06/29 21:40:38;;;;;;;;;10.75;9.75;;;;;16.64;72.61;100543.34;5090898;27;45475;-63
2021/06/29 21:43:03;;;;;;;;;21.50;17.00;;;;;16.63;73.12;100541.66;5089424;27;55709;-62
2021/06/29 21:45:29;;;;;;;;;15.50;13.00;;;;;16.64;73.12;100538.91;5082475;27;46655;-62
2021/06/29 21:47:54;;;;;;;;;10.75;10.25;;;;;16.60;72.68;100532.09;5071129;28;45986;-62
2021/06/29 21:50:19;;;;;;;;;10.00;9.75;;;;;16.63;72.47;100534.56;5070998;28;48071;-63
2021/06/29 21:52:45;;;;;;;;;10.50;10.00;;;;;16.63;72.74;100536.34;5071302;28;45516;-64
2021/06/29 21:55:10;;;;;;;;;10.25;8.75;;;;;16.64;72.44;100533.59;5070645;28;58858;-64
2021/06/29 21:57:36;;;;;;;;;16.50;10.50;;;;;16.63;72.52;100534.56;5060549;28;45394;-62
2021/06/29 22:00:07;;;;;;;;;9.00;9.00;;;;;16.67;72.40;100543.16;5057734;28;45788;-62
2021/06/29 22:02:33;;;;;;;;;9.25;9.25;;;;;16.67;72.83;100542.31;5039491;28;45326;-62
2021/06/29 22:05:00;;;;;;;;;11.75;9.00;;;;;16.65;72.60;100540.63;5038366;28;67341;-62
2021/06/29 22:07:26;;;;;;;;;13.75;11.75;;;;;16.67;72.89;100537.00;5057340;28;45623;-63
2021/06/29 22:09:51;;;;;;;;;10.75;10.75;;;;;16.65;73.13;100540.63;5057090;28;50632;-62
2021/06/29 22:12:16;;;;;;;;;13.75;12.00;;;;;16.64;72.99;100538.06;5057282;28;46665;-61
2021/06/29 22:14:42;;;;;;;;;10.50;9.50;;;;;16.66;73.32;100536.13;5057156;28;55888;-61
2021/06/29 22:17:07;;;;;;;;;12.00;12.00;;;;;16.68;73.28;100539.53;5056633;28;56058;-62
2021/06/29 22:19:33;;;;;;;;;13.75;12.25;;;;;16.70;73.31;100542.94;5055595;28;59034;-62
2021/06/29 22:21:58;;;;;;;;;15.00;11.00;;;;;16.70;73.33;100545.59;5057535;28;45611;-62
2021/06/29 22:24:24;;;;;;;;;12.50;12.25;;;;;16.68;73.24;100539.53;5056871;28;45999;-62
2021/06/29 22:26:49;;;;;;;;;12.50;10.25;;;;;16.69;73.53;100537.75;5057039;28;45250;-62
2021/06/29 22:29:15;;;;;;;;;14.50;12.00;;;;;16.70;73.35;100548.25;5039311;28;45295;-62
2021/06/29 22:31:40;;;;;;;;;13.75;13.00;;;;;16.72;73.51;100537.56;5039312;28;45592;-61
2021/06/29 22:34:06;;;;;;;;;17.00;16.25;;;;;16.73;73.47;100541.91;5057104;28;45351;-63
2021/06/29 22:36:31;;;;;;;;;15.25;12.00;;;;;16.72;73.63;100540.22;5056331;28;58671;-63
2021/06/29 22:38:57;;;;;;;;;13.00;11.00;;;;;16.73;73.65;100536.59;5056896;28;45478;-62
2021/06/29 22:41:22;;;;;;;;;15.00;13.00;;;;;16.76;73.92;100547.00;5056323;28;59227;-62
2021/06/29 22:43:47;;;;;;;;;17.75;14.00;;;;;16.76;74.03;100531.06;5056498;28;64354;-60
2021/06/29 22:46:13;;;;;;;;;14.75;12.75;;;;;16.78;73.89;100535.31;5071693;28;49024;-61
2021/06/29 22:48:38;;;;;;;;;15.75;14.50;;;;;16.78;74.06;100545.94;5076553;27;58513;-61
2021/06/29 22:51:04;;;;;;;;;14.25;12.25;;;;;16.81;73.92;100544.91;5075340;28;46681;-62
2021/06/29 22:53:29;;;;;;;;;15.75;15.50;;;;;16.80;73.80;100544.03;5076762;27;48071;-62
2021/06/29 22:55:54;;;;;;;;;14.00;13.50;;;;;16.77;73.90;100528.31;5077068;28;45380;-62
2021/06/29 22:58:20;;;;;;;;;18.00;14.00;;;;;16.77;74.13;100538.09;5076407;28;59737;-62
2021/06/29 23:00:45;;;;;;;;;15.25;15.00;;;;;16.75;74.28;100534.69;5076651;28;57674;-62
2021/06/29 23:03:11;;;;;;;;;15.00;14.00;;;;;16.75;74.56;100530.22;5076479;28;45527;-61
2021/06/29 23:05:36;;;;;;;;;17.25;15.00;;;;;16.75;74.71;100534.69;5076796;28;45434;-63
2021/06/29 23:08:01;;;;;;;;;13.00;12.00;;;;;16.73;74.77;100537.44;5075668;27;56067;-61
2021/06/29 23:10:27;;;;;;;;;14.25;14.00;;;;;16.69;74.96;100541.25;5076531;28;45516;-62
2021/06/29 23:12:53;;;;;;;;;22.00;19.25;;;;;16.64;75.56;100536.25;5075910;28;61429;-62
2021/06/29 23:15:18;;;;;;;;;18.50;16.25;;;;;16.62;75.25;100534.66;5085217;27;45524;-62
2021/06/29 23:17:44;;;;;;;;;16.75;16.75;;;;;16.62;75.81;100538.16;5097280;27;45290;-62
2021/06/29 23:20:10;;;;;;;;;17.25;14.75;;;;;16.56;76.07;100535.06;5097446;27;45635;-62
2021/06/29 23:22:35;;;;;;;;;12.75;12.25;;;;;16.52;76.02;100529.13;5095857;27;46608;-61
2021/06/29 23:25:01;;;;;;;;;14.25;14.00;;;;;16.47;76.23;100537.38;5096594;27;45277;-61
2021/06/29 23:27:26;;;;;;;;;17.75;12.75;;;;;16.42;76.21;100534.16;5097055;27;45309;-62
2021/06/29 23:29:52;;;;;;;;;14.00;13.00;;;;;16.41;76.65;100540.44;5096248;27;60498;-61
2021/06/29 23:32:18;;;;;;;;;17.75;15.00;;;;;16.37;76.38;100528.31;5097039;27;46345;-62
2021/06/29 23:34:43;;;;;;;;;18.25;13.00;;;;;16.32;76.81;100525.94;5095928;27;61728;-62
2021/06/29 23:37:08;;;;;;;;;16.75;15.25;;;;;16.31;77.32;100520.75;5096967;27;45251;-62
2021/06/29 23:39:40;;;;;;;;;15.00;13.75;;;;;16.30;77.04;100524.34;5096451;27;52161;-62
2021/06/29 23:42:05;;;;;;;;;15.00;14.00;;;;;16.28;76.92;100524.44;5096487;27;45365;-61
2021/06/29 23:44:31;;;;;;;;;16.00;15.50;;;;;16.25;77.45;100523.81;5096335;27;45464;-62
2021/06/29 23:46:56;;;;;;;;;16.00;14.75;;;;;16.24;77.40;100520.28;5096952;27;45756;-62
2021/06/29 23:49:22;;;;;;;;;16.75;15.75;;;;;16.23;77.57;100517.75;5096901;27;45415;-62
2021/06/29 23:51:47;;;;;;;;;16.00;14.00;;;;;16.27;77.90;100524.56;5112503;27;46219;-60
2021/06/29 23:54:13;;;;;;;;;17.75;14.75;;;;;16.27;77.98;100519.25;5095739;27;65518;-62
2021/06/29 23:56:38;;;;;;;;;20.00;16.00;;;;;16.25;77.75;100514.03;5096483;27;45309;-62
2021/06/29 23:59:03;;;;;;;;;17.00;14.50;;;;;16.24;77.97;100519.44;5095578;27;45364;-62
